createdAt,value
2018-07-17T00:00:23.189Z,52.19
2018-07-17T00:01:23.154Z,52.28
2018-07-17T00:02:23.126Z,52.37
2018-07-17T00:03:23.095Z,52.28
2018-07-17T00:04:23.064Z,52.45
2018-07-17T00:05:23.034Z,52.55
2018-07-17T00:06:23.004Z,52.55
2018-07-17T00:07:22.972Z,53.22
2018-07-17T00:08:22.943Z,52.83
2018-07-17T00:09:22.910Z,53.13
2018-07-17T00:10:22.879Z,53.61
2018-07-17T00:11:22.854Z,53.87
2018-07-17T00:12:22.824Z,53.41
2018-07-17T00:13:22.791Z,53.80
2018-07-17T00:14:22.762Z,53.61
2018-07-17T00:15:22.726Z,53.80
2018-07-17T00:16:22.701Z,53.70
2018-07-17T00:17:22.671Z,53.03
2018-07-17T00:18:22.638Z,53.13
2018-07-17T00:19:22.616Z,53.61
2018-07-17T00:20:22.580Z,53.22
2018-07-17T00:21:22.549Z,53.25
2018-07-17T00:22:22.514Z,53.89
2018-07-17T00:23:22.488Z,53.83
2018-07-17T00:24:22.457Z,54.47
2018-07-17T00:25:22.426Z,53.99
2018-07-17T00:26:22.397Z,54.69
2018-07-17T00:27:22.360Z,54.11
2018-07-17T00:28:22.332Z,54.31
2018-07-17T00:29:22.303Z,54.60
2018-07-17T00:30:22.271Z,55.76
2018-07-17T00:31:22.245Z,54.79
2018-07-17T00:32:22.212Z,54.60
2018-07-17T00:33:22.183Z,54.60
2018-07-17T00:34:22.153Z,55.66
2018-07-17T00:35:22.117Z,55.46
2018-07-17T00:36:22.099Z,55.27
2018-07-17T00:37:22.062Z,55.56
2018-07-17T00:38:22.034Z,55.56
2018-07-17T00:39:21.995Z,55.46
2018-07-17T00:40:21.968Z,54.88
2018-07-17T00:41:21.937Z,55.66
2018-07-17T00:42:21.904Z,55.18
2018-07-17T00:43:21.878Z,56.33
2018-07-17T00:44:21.849Z,55.94
2018-07-17T00:45:21.820Z,56.04
2018-07-17T00:46:21.788Z,56.33
2018-07-17T00:47:21.750Z,57.10
2018-07-17T00:48:21.723Z,57.68
2018-07-17T00:49:21.694Z,58.26
2018-07-17T00:50:21.667Z,58.07
2018-07-17T00:51:21.640Z,58.07
2018-07-17T00:52:21.602Z,58.17
2018-07-17T00:53:21.571Z,58.84
2018-07-17T00:54:21.535Z,58.84
2018-07-17T00:55:21.514Z,59.61
2018-07-17T00:56:21.483Z,59.52
2018-07-17T00:57:21.450Z,60.38
2018-07-17T00:58:21.421Z,60.28
2018-07-17T00:59:21.385Z,60.19
2018-07-17T01:00:21.360Z,60.68
2018-07-17T01:01:21.334Z,61.64
2018-07-17T01:02:21.299Z,61.64
2018-07-17T01:03:21.267Z,61.06
2018-07-17T01:04:21.234Z,61.74
2018-07-17T01:05:21.204Z,61.93
2018-07-17T01:06:21.174Z,61.44
2018-07-17T01:07:21.149Z,61.83
2018-07-17T01:08:21.116Z,62.70
2018-07-17T01:09:21.084Z,62.02
2018-07-17T01:10:21.052Z,61.83
2018-07-17T01:11:21.026Z,61.74
2018-07-17T01:12:20.993Z,62.02
2018-07-17T01:13:20.963Z,62.79
2018-07-17T01:14:20.933Z,62.41
2018-07-17T01:15:20.897Z,62.51
2018-07-17T01:16:20.873Z,62.89
2018-07-17T01:17:20.840Z,63.21
2018-07-17T01:18:20.806Z,63.09
2018-07-17T01:19:20.786Z,63.47
2018-07-17T01:20:20.753Z,63.09
2018-07-17T01:21:20.718Z,63.85
2018-07-17T01:22:20.689Z,63.28
2018-07-17T01:23:20.654Z,63.37
2018-07-17T01:24:20.625Z,63.47
2018-07-17T01:25:20.600Z,63.37
2018-07-17T01:26:20.567Z,64.15
2018-07-17T01:27:20.532Z,63.85
2018-07-17T01:28:20.502Z,62.60
2018-07-17T01:29:20.476Z,62.51
2018-07-17T01:30:20.439Z,62.60
2018-07-17T01:31:20.415Z,62.99
2018-07-17T01:32:20.383Z,64.15
2018-07-17T01:33:20.353Z,65.11
2018-07-17T01:34:20.324Z,64.43
2018-07-17T01:35:20.294Z,65.01
2018-07-17T01:36:20.259Z,65.20
2018-07-17T01:37:20.229Z,64.15
2018-07-17T01:38:20.200Z,63.37
2018-07-17T01:39:20.170Z,64.53
2018-07-17T01:40:20.140Z,64.15
2018-07-17T01:41:20.109Z,64.82
2018-07-17T01:42:20.077Z,65.50
2018-07-17T01:43:20.051Z,65.20
2018-07-17T01:44:20.016Z,65.27
2018-07-17T01:45:19.988Z,65.20
2018-07-17T01:46:19.956Z,65.95
2018-07-17T01:47:19.922Z,65.75
2018-07-17T01:48:19.892Z,66.33
2018-07-17T01:49:19.867Z,66.33
2018-07-17T01:50:19.829Z,66.17
2018-07-17T01:51:19.803Z,65.98
2018-07-17T01:52:19.771Z,66.36
2018-07-17T01:53:19.743Z,66.72
2018-07-17T01:54:19.711Z,66.56
2018-07-17T01:55:19.678Z,66.08
2018-07-17T01:56:19.646Z,66.33
2018-07-17T01:57:19.621Z,66.62
2018-07-17T01:58:19.589Z,66.82
2018-07-17T01:59:19.552Z,67.88
2018-07-17T02:00:19.525Z,67.78
2018-07-17T02:01:19.493Z,68.35
2018-07-17T02:02:19.461Z,68.84
2018-07-17T02:03:19.436Z,68.74
2018-07-17T02:04:19.405Z,68.93
2018-07-17T02:05:19.373Z,68.65
2018-07-17T02:06:19.345Z,68.74
2018-07-17T02:07:19.307Z,68.65
2018-07-17T02:08:19.282Z,68.65
2018-07-17T02:09:19.256Z,68.93
2018-07-17T02:10:19.216Z,68.65
2018-07-17T02:11:19.191Z,68.65
2018-07-17T02:12:19.159Z,68.84
2018-07-17T02:13:19.127Z,68.65
2018-07-17T02:14:19.093Z,68.74
2018-07-17T02:15:19.068Z,69.13
2018-07-17T02:16:19.035Z,69.80
2018-07-17T02:17:19.007Z,70.19
2018-07-17T02:18:18.977Z,70.00
2018-07-17T02:19:18.944Z,70.28
2018-07-17T02:20:18.911Z,70.19
2018-07-17T02:21:18.879Z,70.57
2018-07-17T02:22:18.848Z,71.06
2018-07-17T02:23:18.822Z,70.86
2018-07-17T02:24:18.791Z,70.57
2018-07-17T02:25:18.758Z,70.96
2018-07-17T02:26:18.729Z,70.86
2018-07-17T02:27:18.693Z,70.96
2018-07-17T02:28:18.670Z,70.96
2018-07-17T02:29:18.637Z,71.54
2018-07-17T02:30:18.611Z,71.54
2018-07-17T02:31:18.570Z,71.54
2018-07-17T02:32:18.542Z,71.73
2018-07-17T02:33:18.511Z,71.34
2018-07-17T02:34:18.477Z,71.44
2018-07-17T02:35:18.453Z,71.25
2018-07-17T02:36:18.422Z,71.54
2018-07-17T02:37:18.390Z,72.31
2018-07-17T02:38:18.360Z,71.79
2018-07-17T02:39:18.325Z,71.60
2018-07-17T02:40:18.295Z,72.66
2018-07-17T02:41:18.266Z,72.56
2018-07-17T02:42:18.269Z,72.37
2018-07-17T02:43:18.210Z,71.98
2018-07-17T02:44:18.175Z,71.41
2018-07-17T02:45:18.143Z,71.98
2018-07-17T02:46:18.108Z,72.27
2018-07-17T02:47:18.083Z,72.56
2018-07-17T02:48:18.051Z,72.24
2018-07-17T02:49:18.051Z,72.37
2018-07-17T02:50:17.987Z,72.27
2018-07-17T02:51:17.955Z,72.37
2018-07-17T02:52:17.926Z,72.37
2018-07-17T02:53:17.896Z,72.85
2018-07-17T02:54:17.863Z,72.33
2018-07-17T02:55:17.838Z,72.72
2018-07-17T02:56:17.803Z,73.24
2018-07-17T02:57:17.775Z,73.30
2018-07-17T02:58:17.749Z,73.30
2018-07-17T02:59:17.711Z,72.81
2018-07-17T03:00:17.688Z,73.49
2018-07-17T03:01:17.650Z,73.30
2018-07-17T03:02:17.619Z,73.39
2018-07-17T03:03:17.630Z,73.30
2018-07-17T03:04:17.553Z,73.39
2018-07-17T03:05:17.523Z,73.20
2018-07-17T03:06:17.488Z,73.20
2018-07-17T03:07:17.464Z,73.58
2018-07-17T03:08:17.430Z,73.78
2018-07-17T03:09:17.399Z,74.07
2018-07-17T03:10:17.369Z,74.26
2018-07-17T03:11:17.333Z,74.26
2018-07-17T03:12:17.304Z,74.45
2018-07-17T03:13:17.272Z,74.65
2018-07-17T03:14:17.238Z,74.74
2018-07-17T03:15:17.213Z,74.65
2018-07-17T03:16:17.183Z,74.26
2018-07-17T03:17:17.146Z,74.45
2018-07-17T03:18:17.114Z,74.65
2018-07-17T03:19:17.089Z,74.07
2018-07-17T03:20:17.057Z,74.65
2018-07-17T03:21:17.027Z,74.65
2018-07-17T03:22:16.993Z,74.55
2018-07-17T03:23:16.960Z,74.74
2018-07-17T03:24:16.930Z,75.23
2018-07-17T03:25:16.896Z,75.32
2018-07-17T03:26:16.867Z,75.32
2018-07-17T03:27:16.838Z,75.32
2018-07-17T03:28:16.805Z,75.80
2018-07-17T03:29:16.775Z,76.18
2018-07-17T03:30:16.743Z,76.09
2018-07-17T03:31:16.716Z,75.90
2018-07-17T03:32:16.677Z,75.99
2018-07-17T03:33:16.648Z,75.80
2018-07-17T03:34:16.619Z,76.48
2018-07-17T03:35:16.581Z,76.09
2018-07-17T03:36:16.553Z,76.28
2018-07-17T03:37:16.520Z,76.80
2018-07-17T03:38:16.485Z,76.57
2018-07-17T03:39:16.465Z,76.86
2018-07-17T03:40:16.428Z,77.15
2018-07-17T03:41:16.432Z,76.76
2018-07-17T03:42:16.367Z,76.86
2018-07-17T03:43:16.330Z,76.48
2018-07-17T03:44:16.302Z,77.15
2018-07-17T03:45:16.271Z,76.67
2018-07-17T03:46:16.237Z,77.15
2018-07-17T03:47:16.211Z,77.15
2018-07-17T03:48:16.177Z,77.53
2018-07-17T03:49:16.144Z,77.44
2018-07-17T03:50:16.110Z,77.34
2018-07-17T03:51:16.086Z,77.34
2018-07-17T04:07:12.827Z,79.17
2018-07-17T04:08:12.751Z,79.23
2018-07-17T04:09:12.716Z,79.52
2018-07-17T04:10:12.675Z,79.61
2018-07-17T04:11:12.641Z,80.19
2018-07-17T04:12:12.603Z,80.19
2018-07-17T04:13:12.571Z,80.00
2018-07-17T04:14:12.538Z,80.19
2018-07-17T04:15:12.505Z,80.10
2018-07-17T04:16:12.470Z,80.29
2018-07-17T04:17:12.437Z,80.00
2018-07-17T04:18:12.401Z,80.77
2018-07-17T04:19:12.364Z,80.58
2018-07-17T04:20:12.333Z,80.92
2018-07-17T04:21:12.300Z,81.30
2018-07-17T04:22:12.270Z,81.50
2018-07-17T04:23:12.239Z,81.70
2018-07-17T04:24:12.202Z,81.98
2018-07-17T04:25:12.171Z,82.08
2018-07-17T04:26:12.140Z,82.46
2018-07-17T04:27:12.109Z,82.56
2018-07-17T04:28:12.076Z,82.65
2018-07-17T04:29:12.050Z,83.14
2018-07-17T04:30:12.010Z,83.04
2018-07-17T04:31:11.973Z,83.42
2018-07-17T04:32:11.951Z,83.33
2018-07-17T04:33:11.916Z,83.33
2018-07-17T04:34:11.882Z,83.56
2018-07-17T04:35:11.849Z,83.95
2018-07-17T04:36:11.812Z,84.05
2018-07-17T04:37:11.782Z,84.23
2018-07-17T04:38:11.754Z,84.43
2018-07-17T04:39:11.722Z,84.53
2018-07-17T04:40:11.685Z,84.53
2018-07-17T04:41:11.653Z,84.33
2018-07-17T04:42:11.626Z,84.23
2018-07-17T04:43:11.594Z,84.81
2018-07-17T04:44:11.595Z,85.00
2018-07-17T04:45:11.529Z,84.62
2018-07-17T04:46:11.495Z,84.43
2018-07-17T04:47:11.462Z,84.81
2018-07-17T04:48:11.429Z,85.20
2018-07-17T04:49:11.398Z,85.00
2018-07-17T04:50:11.369Z,85.14
2018-07-17T04:51:11.341Z,84.81
2018-07-17T04:52:11.307Z,85.63
2018-07-17T04:53:11.273Z,85.14
2018-07-17T04:54:11.244Z,84.76
2018-07-17T04:55:11.207Z,84.86
2018-07-17T04:56:11.184Z,84.95
2018-07-17T04:57:11.147Z,84.86
2018-07-17T04:58:11.113Z,85.14
2018-07-17T04:59:11.078Z,84.76
2018-07-17T05:00:11.050Z,85.24
2018-07-17T05:01:11.021Z,85.24
2018-07-17T05:02:10.989Z,84.86
2018-07-17T05:03:10.959Z,84.47
2018-07-17T05:04:10.926Z,84.95
2018-07-17T05:05:10.894Z,84.47
2018-07-17T05:06:10.860Z,84.86
2018-07-17T05:07:10.826Z,85.14
2018-07-17T05:08:10.797Z,84.76
2018-07-17T05:09:10.768Z,85.43
2018-07-17T05:10:10.736Z,85.34
2018-07-17T05:11:10.707Z,85.53
2018-07-17T05:12:10.685Z,85.53
2018-07-17T05:13:10.640Z,85.63
2018-07-17T05:14:10.609Z,85.43
2018-07-17T05:15:10.580Z,85.86
2018-07-17T05:16:10.551Z,85.67
2018-07-17T05:17:10.514Z,85.67
2018-07-17T05:18:10.487Z,85.28
2018-07-17T05:19:10.453Z,85.19
2018-07-17T05:20:10.466Z,85.19
2018-07-17T05:21:10.387Z,84.84
2018-07-17T05:22:10.357Z,84.65
2018-07-17T05:23:10.327Z,84.94
2018-07-17T05:24:10.295Z,85.33
2018-07-17T05:25:10.264Z,85.42
2018-07-17T05:26:10.231Z,85.42
2018-07-17T05:27:10.198Z,84.65
2018-07-17T05:28:10.170Z,85.23
2018-07-17T05:29:10.139Z,84.98
2018-07-17T05:30:10.106Z,84.98
2018-07-17T05:31:10.073Z,84.59
2018-07-17T05:32:10.043Z,84.98
2018-07-17T05:33:10.012Z,84.79
2018-07-17T05:34:09.985Z,85.27
2018-07-17T05:35:09.965Z,84.25
2018-07-17T05:36:09.924Z,84.54
2018-07-17T05:37:09.890Z,85.31
2018-07-17T05:38:09.857Z,85.22
2018-07-17T05:39:09.826Z,84.25
2018-07-17T05:40:09.793Z,84.74
2018-07-17T05:41:09.767Z,84.58
2018-07-17T05:42:09.743Z,84.39
2018-07-17T05:43:09.708Z,84.20
2018-07-17T05:44:09.674Z,83.14
2018-07-17T05:45:09.644Z,83.42
2018-07-17T05:46:09.614Z,83.62
2018-07-17T05:47:09.584Z,83.52
2018-07-17T05:48:09.556Z,82.75
2018-07-17T05:49:09.524Z,83.66
2018-07-17T05:50:09.490Z,83.08
2018-07-17T05:51:09.459Z,81.92
2018-07-17T05:52:09.427Z,82.79
2018-07-17T05:53:09.403Z,82.69
2018-07-17T05:54:09.372Z,82.21
2018-07-17T05:55:09.341Z,81.53
2018-07-17T05:56:09.313Z,81.77
2018-07-17T05:57:09.281Z,81.87
2018-07-17T05:58:09.250Z,81.29
2018-07-17T05:59:09.217Z,80.99
2018-07-17T06:00:09.196Z,80.51
2018-07-17T06:01:09.159Z,80.51
2018-07-17T06:02:09.132Z,81.09
2018-07-17T06:03:09.095Z,80.26
2018-07-17T06:04:09.069Z,79.29
2018-07-17T06:05:09.042Z,79.97
2018-07-17T06:06:09.012Z,80.36
2018-07-17T06:07:08.983Z,80.55
2018-07-17T06:08:08.953Z,79.93
2018-07-17T06:09:08.921Z,80.22
2018-07-17T06:10:08.910Z,80.80
2018-07-17T06:11:08.858Z,80.71
2018-07-17T06:12:08.829Z,81.29
2018-07-17T06:13:08.802Z,81.09
2018-07-17T06:14:08.773Z,81.05
2018-07-17T06:15:08.746Z,81.82
2018-07-17T06:16:08.710Z,81.82
2018-07-17T06:17:08.684Z,81.63
2018-07-17T06:18:08.657Z,81.73
2018-07-17T06:19:08.709Z,82.02
2018-07-17T06:20:08.599Z,81.92
2018-07-17T06:21:08.568Z,81.73
2018-07-17T06:22:08.594Z,82.31
2018-07-17T06:23:08.504Z,81.53
2018-07-17T06:24:08.474Z,82.50
2018-07-17T06:25:08.505Z,82.31
2018-07-17T06:26:08.419Z,81.44
2018-07-17T06:27:08.390Z,81.53
2018-07-17T06:28:08.361Z,81.34
2018-07-17T06:29:08.330Z,81.73
2018-07-17T06:30:08.298Z,82.50
2018-07-17T06:31:08.269Z,82.60
2018-07-17T06:32:08.244Z,82.46
2018-07-17T06:33:08.264Z,82.46
2018-07-17T06:34:08.179Z,82.56
2018-07-17T06:35:08.146Z,83.08
2018-07-17T06:36:08.120Z,82.21
2018-07-17T06:37:08.090Z,82.98
2018-07-17T06:38:08.062Z,82.79
2018-07-17T06:39:08.038Z,83.75
2018-07-17T06:40:08.004Z,82.79
2018-07-17T06:41:07.972Z,82.98
2018-07-17T06:42:07.940Z,83.18
2018-07-17T06:43:07.909Z,82.50
2018-07-17T06:44:07.880Z,82.98
2018-07-17T06:45:07.853Z,83.56
2018-07-17T06:46:07.826Z,82.69
2018-07-17T06:47:07.798Z,82.50
2018-07-17T06:48:07.760Z,82.98
2018-07-17T06:49:07.732Z,83.27
2018-07-17T06:50:07.763Z,83.66
2018-07-17T06:51:07.678Z,83.56
2018-07-17T06:52:07.652Z,83.56
2018-07-17T06:53:07.617Z,84.43
2018-07-17T06:54:07.586Z,84.82
2018-07-17T06:55:07.556Z,83.95
2018-07-17T06:56:07.528Z,83.66
2018-07-17T06:57:07.498Z,82.60
2018-07-17T06:58:07.473Z,82.89
2018-07-17T06:59:07.445Z,82.89
2018-07-17T07:00:07.414Z,83.66
2018-07-17T07:01:07.383Z,82.40
2018-07-17T07:02:07.351Z,82.31
2018-07-17T07:03:07.318Z,82.89
2018-07-17T07:04:07.300Z,83.27
2018-07-17T07:05:07.283Z,83.95
2018-07-17T07:06:07.233Z,83.66
2018-07-17T07:07:07.200Z,83.66
2018-07-17T07:08:07.199Z,83.47
2018-07-17T07:09:07.143Z,83.47
2018-07-17T07:10:07.117Z,82.98
2018-07-17T07:11:07.099Z,82.69
2018-07-17T07:12:07.058Z,82.60
2018-07-17T07:13:07.027Z,82.79
2018-07-17T07:14:06.995Z,83.95
2018-07-17T07:15:06.965Z,84.53
2018-07-17T07:16:06.935Z,84.63
2018-07-17T07:17:06.907Z,83.66
2018-07-17T07:18:06.881Z,82.89
2018-07-17T07:19:06.852Z,82.98
2018-07-17T07:20:06.816Z,82.89
2018-07-17T07:21:06.789Z,83.66
2018-07-17T07:22:06.764Z,83.27
2018-07-17T07:23:06.733Z,82.69
2018-07-17T07:24:06.708Z,82.50
2018-07-17T07:25:06.674Z,82.79
2018-07-17T07:26:06.643Z,83.56
2018-07-17T07:27:06.610Z,83.27
2018-07-17T07:28:06.582Z,83.70
2018-07-17T07:29:06.555Z,84.38
2018-07-17T07:30:06.527Z,84.86
2018-07-17T07:31:06.568Z,84.95
2018-07-17T07:32:06.473Z,85.25
2018-07-17T07:33:06.442Z,85.15
2018-07-17T07:34:06.410Z,85.35
2018-07-17T07:35:06.376Z,85.63
2018-07-17T07:36:06.356Z,86.21
2018-07-17T07:37:06.322Z,85.73
2018-07-17T07:38:06.293Z,85.63
2018-07-17T07:39:06.260Z,85.35
2018-07-17T07:40:06.229Z,85.93
2018-07-17T07:41:06.205Z,85.48
2018-07-17T07:42:06.178Z,85.29
2018-07-17T07:43:06.147Z,85.10
2018-07-17T07:44:06.122Z,85.29
2018-07-17T07:45:06.088Z,85.24
2018-07-17T07:46:06.059Z,84.08
2018-07-17T07:47:06.027Z,82.91
2018-07-17T07:48:05.996Z,81.85
2018-07-17T07:49:06.044Z,81.56
2018-07-17T07:50:05.945Z,81.75
2018-07-17T07:51:05.917Z,80.34
2018-07-17T07:52:05.881Z,80.34
2018-07-17T07:53:05.853Z,80.54
2018-07-17T07:54:05.827Z,81.21
2018-07-17T07:55:05.800Z,79.76
2018-07-17T07:56:05.770Z,80.28
2018-07-17T07:57:05.743Z,79.90
2018-07-17T07:58:05.708Z,77.19
2018-07-17T07:59:05.678Z,77.57
2018-07-17T08:00:05.653Z,76.74
2018-07-17T08:01:05.624Z,75.57
2018-07-17T08:02:05.596Z,73.15
2018-07-17T08:03:05.571Z,71.41
2018-07-17T08:04:05.561Z,73.25
2018-07-17T08:05:05.513Z,72.86
2018-07-17T08:06:05.482Z,71.12
2018-07-17T08:07:05.450Z,71.12
2018-07-17T08:08:05.428Z,71.22
2018-07-17T08:09:05.400Z,71.60
2018-07-17T08:10:05.367Z,72.77
2018-07-17T08:11:05.338Z,73.05
2018-07-17T08:12:05.373Z,73.44
2018-07-17T08:13:05.282Z,73.05
2018-07-17T08:14:05.258Z,73.05
2018-07-17T08:15:05.231Z,73.35
2018-07-17T08:16:05.205Z,73.19
2018-07-17T08:17:05.172Z,72.02
2018-07-17T08:18:05.143Z,71.25
2018-07-17T08:19:05.113Z,70.76
2018-07-17T08:20:05.084Z,71.73
2018-07-17T08:21:05.058Z,72.02
2018-07-17T08:22:05.037Z,72.41
2018-07-17T08:23:05.008Z,71.77
2018-07-17T08:24:04.973Z,69.34
2018-07-17T08:25:04.946Z,69.44
2018-07-17T08:26:04.921Z,69.31
2018-07-17T08:27:04.894Z,67.85
2018-07-17T08:28:04.867Z,70.86
2018-07-17T08:29:04.836Z,70.47
2018-07-17T08:30:04.816Z,68.73
2018-07-17T08:31:04.777Z,68.54
2018-07-17T08:32:04.749Z,68.70
2018-07-17T08:33:04.727Z,69.02
2018-07-17T08:34:04.697Z,69.02
2018-07-17T08:35:04.672Z,69.02
2018-07-17T08:36:04.646Z,68.99
2018-07-17T08:37:04.613Z,69.76
2018-07-17T08:38:04.640Z,69.27
2018-07-17T08:39:04.557Z,69.85
2018-07-17T08:40:04.531Z,70.54
2018-07-17T08:41:04.501Z,72.28
2018-07-17T08:42:04.473Z,70.63
2018-07-17T08:43:04.441Z,69.79
2018-07-17T08:44:04.418Z,69.02
2018-07-17T08:45:04.389Z,70.18
2018-07-17T08:46:04.362Z,70.54
2018-07-17T08:47:04.341Z,69.95
2018-07-17T08:48:04.307Z,71.15
2018-07-17T08:49:04.303Z,70.63
2018-07-17T08:50:04.247Z,68.30
2018-07-17T08:51:04.223Z,67.24
2018-07-17T08:52:04.193Z,67.24
2018-07-17T08:53:04.164Z,68.40
2018-07-17T08:54:04.224Z,69.27
2018-07-17T08:55:04.114Z,70.83
2018-07-17T08:56:04.081Z,71.60
2018-07-17T08:57:04.052Z,70.05
2018-07-17T08:58:04.032Z,68.40
2018-07-17T08:59:04.000Z,68.30
2018-07-17T09:00:03.972Z,68.60
2018-07-17T09:01:03.944Z,67.53
2018-07-17T09:02:03.918Z,67.92
2018-07-17T09:03:03.884Z,68.63
2018-07-17T09:04:03.859Z,67.37
2018-07-17T09:05:03.829Z,68.82
2018-07-17T09:06:03.806Z,67.50
2018-07-17T09:07:03.776Z,66.05
2018-07-17T09:08:03.747Z,67.21
2018-07-17T09:09:03.723Z,65.85
2018-07-17T09:10:03.688Z,66.14
2018-07-17T09:11:03.661Z,66.24
2018-07-17T09:12:03.637Z,66.79
2018-07-17T09:13:03.666Z,67.08
2018-07-17T09:14:03.577Z,66.99
2018-07-17T09:15:03.552Z,67.27
2018-07-17T09:16:03.525Z,68.63
2018-07-17T09:17:03.496Z,68.24
2018-07-17T09:18:03.472Z,67.27
2018-07-17T09:19:03.447Z,67.18
2018-07-17T09:20:03.416Z,66.99
2018-07-17T09:21:03.390Z,67.27
2018-07-17T09:22:03.355Z,67.37
2018-07-17T09:23:03.328Z,66.69
2018-07-17T09:24:03.303Z,66.79
2018-07-17T09:25:03.271Z,66.79
2018-07-17T09:26:03.249Z,66.99
2018-07-17T09:27:03.248Z,67.95
2018-07-17T09:28:03.220Z,67.57
2018-07-17T09:29:03.160Z,66.79
2018-07-17T09:30:03.138Z,66.79
2018-07-17T09:31:03.112Z,66.08
2018-07-17T09:32:03.079Z,66.89
2018-07-17T09:33:03.053Z,67.18
2018-07-17T09:34:03.020Z,67.47
2018-07-17T09:35:02.993Z,66.99
2018-07-17T09:36:02.965Z,66.79
2018-07-17T09:37:02.938Z,65.63
2018-07-17T09:38:02.916Z,66.02
2018-07-17T09:39:02.966Z,63.88
2018-07-17T09:40:02.858Z,63.88
2018-07-17T09:41:02.830Z,64.17
2018-07-17T09:42:02.800Z,64.85
2018-07-17T09:43:02.770Z,65.05
2018-07-17T09:44:02.744Z,63.10
2018-07-17T09:45:02.719Z,61.94
2018-07-17T09:46:02.685Z,61.98
2018-07-17T09:47:02.658Z,62.36
2018-07-17T09:48:02.631Z,62.46
2018-07-17T09:49:02.600Z,61.68
2018-07-17T09:50:02.580Z,60.32
2018-07-17T09:51:02.550Z,58.87
2018-07-17T09:52:02.521Z,58.90
2018-07-17T09:53:02.498Z,62.19
2018-07-17T09:54:02.462Z,62.10
2018-07-17T09:55:02.434Z,61.81
2018-07-17T09:56:02.410Z,59.87
2018-07-17T09:57:02.377Z,59.51
2018-07-17T09:58:02.356Z,60.19
2018-07-17T09:59:02.325Z,59.51
2018-07-17T10:00:02.296Z,59.41
2018-07-17T10:01:02.270Z,59.25
2018-07-17T10:02:02.247Z,58.05
2018-07-17T10:03:02.215Z,57.37
2018-07-17T10:04:02.191Z,57.76
2018-07-17T10:05:02.161Z,57.57
2018-07-17T10:06:02.128Z,57.96
2018-07-17T10:07:02.102Z,58.86
2018-07-17T10:08:02.075Z,57.79
2018-07-17T10:21:39.237Z,54.66
2018-07-17T10:22:39.186Z,55.43
2018-07-17T10:23:39.142Z,56.60
2018-07-17T10:24:39.116Z,56.98
2018-07-17T10:25:39.083Z,55.63
2018-07-17T10:26:39.070Z,55.17
2018-07-17T10:27:39.024Z,55.46
2018-07-17T10:28:38.988Z,55.36
2018-07-17T10:29:38.967Z,54.39
2018-07-17T10:30:38.930Z,52.47
2018-07-17T10:31:38.903Z,52.28
2018-07-17T10:32:38.879Z,52.86
2018-07-17T10:33:38.846Z,50.73
2018-07-17T10:34:38.817Z,49.37
2018-07-17T10:35:38.796Z,49.46
2018-07-17T10:36:38.762Z,49.27
2018-07-17T10:37:38.733Z,48.20
2018-07-17T10:38:38.771Z,48.68
2018-07-17T10:39:38.679Z,49.27
2018-07-17T10:40:38.647Z,49.37
2018-07-17T10:41:38.626Z,49.17
2018-07-17T10:42:38.592Z,49.39
2018-07-17T10:43:38.565Z,50.16
2018-07-17T10:44:38.543Z,50.16
2018-07-17T10:45:38.511Z,50.16
2018-07-17T10:46:38.481Z,48.68
2018-07-17T10:47:38.553Z,49.46
2018-07-17T10:48:38.424Z,49.66
2018-07-17T10:49:38.399Z,50.02
2018-07-17T10:50:38.373Z,50.31
2018-07-17T10:51:38.348Z,50.89
2018-07-17T10:52:38.317Z,50.80
2018-07-17T10:53:38.294Z,50.92
2018-07-17T10:54:38.262Z,50.24
2018-07-17T10:55:38.232Z,50.92
2018-07-17T10:56:38.211Z,49.78
2018-07-17T10:57:38.182Z,50.65
2018-07-17T10:58:38.155Z,50.75
2018-07-17T10:59:38.130Z,50.36
2018-07-17T11:00:38.097Z,50.26
2018-07-17T11:01:38.072Z,50.24
2018-07-17T11:02:38.043Z,51.50
2018-07-17T11:03:38.017Z,51.70
2018-07-17T11:04:37.995Z,51.21
2018-07-17T11:05:37.966Z,51.01
2018-07-17T11:06:37.936Z,50.73
2018-07-17T11:07:37.910Z,50.92
2018-07-17T11:08:37.885Z,51.40
2018-07-17T11:09:37.857Z,51.11
2018-07-17T11:10:37.828Z,51.09
2018-07-17T11:11:38.434Z,50.99
2018-07-17T11:12:37.770Z,52.15
2018-07-17T11:13:37.745Z,52.45
2018-07-17T11:14:37.717Z,52.45
2018-07-17T11:15:37.689Z,53.03
2018-07-17T11:16:37.670Z,52.15
2018-07-17T11:17:37.640Z,52.55
2018-07-17T11:18:37.611Z,53.13
2018-07-17T11:19:37.585Z,53.06
2018-07-17T11:20:37.552Z,51.99
2018-07-17T11:21:37.528Z,52.25
2018-07-17T11:22:37.503Z,52.94
2018-07-17T11:23:37.476Z,52.15
2018-07-17T11:24:37.446Z,52.94
2018-07-17T11:25:37.419Z,52.35
2018-07-17T11:26:37.390Z,53.00
2018-07-17T11:27:37.376Z,52.72
2018-07-17T11:28:37.344Z,53.39
2018-07-17T11:29:37.313Z,52.42
2018-07-17T11:30:37.290Z,53.39
2018-07-17T11:31:37.263Z,52.91
2018-07-17T11:32:37.226Z,53.20
2018-07-17T11:33:37.202Z,52.33
2018-07-17T11:34:37.173Z,52.03
2018-07-17T11:35:37.144Z,52.81
2018-07-17T11:36:37.123Z,52.72
2018-07-17T11:37:37.095Z,51.93
2018-07-17T11:38:37.077Z,52.52
2018-07-17T11:39:37.043Z,52.45
2018-07-17T11:40:37.016Z,51.77
2018-07-17T11:41:36.987Z,52.86
2018-07-17T11:42:36.960Z,51.99
2018-07-17T11:43:36.935Z,52.09
2018-07-17T11:44:36.901Z,52.11
2018-07-17T11:45:36.875Z,50.43
2018-07-17T11:46:36.844Z,49.85
2018-07-17T11:47:36.820Z,50.04
2018-07-17T11:48:36.795Z,49.66
2018-07-17T11:49:36.769Z,50.14
2018-07-17T11:50:36.743Z,50.73
2018-07-17T11:51:36.712Z,49.66
2018-07-17T11:52:36.683Z,49.73
2018-07-17T11:53:36.655Z,49.63
2018-07-17T11:54:36.634Z,49.82
2018-07-17T11:55:36.605Z,51.67
2018-07-17T11:56:36.575Z,50.31
2018-07-17T11:57:36.550Z,50.09
2018-07-17T11:58:36.519Z,49.51
2018-07-17T11:59:37.062Z,49.99
2018-07-17T12:00:36.470Z,49.99
2018-07-17T12:01:36.450Z,50.38
2018-07-17T12:02:36.417Z,50.09
2018-07-17T12:03:36.388Z,50.80
2018-07-17T12:04:36.358Z,50.34
2018-07-17T12:05:36.387Z,50.63
2018-07-17T12:06:36.304Z,50.07
2018-07-17T12:07:36.277Z,49.68
2018-07-17T12:08:36.252Z,48.80
2018-07-17T12:09:36.226Z,48.44
2018-07-17T12:10:36.193Z,47.34
2018-07-17T12:11:36.168Z,48.44
2018-07-17T12:12:36.158Z,47.96
2018-07-17T12:13:36.118Z,48.05
2018-07-17T12:14:36.090Z,47.86
2018-07-17T12:15:36.064Z,48.56
2018-07-17T12:16:36.035Z,48.56
2018-07-17T12:17:36.005Z,47.76
2018-07-17T12:18:35.978Z,47.83
2018-07-17T12:19:35.955Z,48.22
2018-07-17T12:20:36.059Z,48.22
2018-07-17T12:21:35.914Z,48.32
2018-07-17T12:22:35.878Z,48.61
2018-07-17T12:23:35.847Z,49.10
2018-07-17T12:24:35.820Z,48.32
2018-07-17T12:25:35.792Z,48.32
2018-07-17T12:26:35.775Z,48.32
2018-07-17T12:27:35.741Z,48.80
2018-07-17T12:28:35.714Z,48.71
2018-07-17T12:29:35.685Z,48.80
2018-07-17T12:30:35.657Z,48.71
2018-07-17T12:31:35.633Z,49.85
2018-07-17T12:32:35.610Z,49.97
2018-07-17T12:33:35.584Z,49.37
2018-07-17T12:34:35.560Z,49.37
2018-07-17T12:35:35.529Z,49.37
2018-07-17T12:36:35.508Z,49.66
2018-07-17T12:37:35.473Z,49.66
2018-07-17T12:38:35.445Z,49.07
2018-07-17T12:39:35.422Z,49.66
2018-07-17T12:40:35.395Z,49.76
2018-07-17T12:41:35.372Z,49.66
2018-07-17T12:42:35.337Z,49.56
2018-07-17T12:43:35.317Z,49.07
2018-07-17T12:44:35.291Z,49.37
2018-07-17T12:45:35.266Z,49.46
2018-07-17T12:46:35.237Z,49.07
2018-07-17T12:47:35.211Z,50.04
2018-07-17T12:48:35.180Z,50.34
2018-07-17T12:49:35.150Z,50.43
2018-07-17T12:50:35.127Z,50.46
2018-07-17T12:51:35.100Z,49.97
2018-07-17T12:52:35.075Z,50.48
2018-07-17T12:53:35.050Z,49.22
2018-07-17T12:54:35.024Z,49.61
2018-07-17T12:55:34.995Z,49.61
2018-07-17T12:56:34.966Z,49.71
2018-07-17T12:57:34.937Z,49.71
2018-07-17T12:58:34.916Z,49.02
2018-07-17T12:59:34.887Z,48.51
2018-07-17T13:00:34.859Z,49.58
2018-07-17T13:01:34.844Z,48.41
2018-07-17T13:02:34.849Z,49.27
2018-07-17T13:03:34.781Z,48.39
2018-07-17T13:04:34.756Z,49.17
2018-07-17T13:05:34.731Z,49.37
2018-07-17T13:06:34.703Z,49.54
2018-07-17T13:07:34.679Z,49.85
2018-07-17T13:08:34.655Z,50.24
2018-07-17T13:09:34.619Z,50.24
2018-07-17T13:10:34.648Z,50.31
2018-07-17T13:11:34.569Z,49.92
2018-07-17T13:12:34.549Z,50.31
2018-07-17T13:13:34.516Z,50.92
2018-07-17T13:14:34.483Z,51.11
2018-07-17T13:15:34.458Z,50.53
2018-07-17T13:16:34.436Z,50.53
2018-07-17T13:17:34.539Z,50.34
2018-07-17T13:18:34.384Z,50.24
2018-07-17T13:19:34.353Z,49.85